createdAt,value
2018-05-06T00:01:23.854Z,83.70
2018-05-06T00:03:52.656Z,83.60
2018-05-06T00:06:20.997Z,83.50
2018-05-06T00:08:49.333Z,83.80
2018-05-06T00:11:17.613Z,83.70
2018-05-06T00:13:45.960Z,84.10
2018-05-06T00:16:15.073Z,84.10
2018-05-06T00:18:44.117Z,84.80
2018-05-06T00:21:12.425Z,84.70
2018-05-06T00:23:40.753Z,85.10
2018-05-06T00:26:09.792Z,84.50
2018-05-06T00:28:38.126Z,84.50
2018-05-06T00:31:06.405Z,84.60
2018-05-06T00:33:34.759Z,84.10
2018-05-06T00:36:03.086Z,84.00
2018-05-06T00:38:31.365Z,83.70
2018-05-06T00:40:59.647Z,84.00
2018-05-06T00:43:28.257Z,83.90
2018-05-06T00:45:56.533Z,84.00
2018-05-06T00:48:24.808Z,84.10
2018-05-06T00:50:53.224Z,83.90
2018-05-06T00:53:21.506Z,84.80
2018-05-06T00:55:49.845Z,84.60
2018-05-06T00:58:18.936Z,84.90
2018-05-06T01:00:48.033Z,85.20
2018-05-06T01:03:16.361Z,85.00
2018-05-06T01:05:44.700Z,85.50
2018-05-06T01:08:13.024Z,85.00
2018-05-06T01:10:42.121Z,85.40
2018-05-06T01:13:11.165Z,85.30
2018-05-06T01:15:39.597Z,85.20
2018-05-06T01:18:07.873Z,85.40
2018-05-06T01:20:36.205Z,85.30
2018-05-06T01:23:05.249Z,85.40
2018-05-06T01:25:33.600Z,85.40
2018-05-06T01:28:02.649Z,86.00
2018-05-06T01:30:30.929Z,85.90
2018-05-06T01:32:59.256Z,86.30
2018-05-06T01:35:27.537Z,85.50
2018-05-06T01:37:55.865Z,85.40
2018-05-06T01:40:24.908Z,85.20
2018-05-06T01:42:53.242Z,85.20
2018-05-06T01:45:21.572Z,85.20
2018-05-06T01:47:49.861Z,85.30
2018-05-06T01:50:18.144Z,85.10
2018-05-06T01:52:47.313Z,84.10
2018-05-06T01:55:15.590Z,84.00
2018-05-06T01:57:43.916Z,83.20
2018-05-06T02:00:12.965Z,83.50
2018-05-06T02:02:41.300Z,83.40
2018-05-06T02:05:09.581Z,83.80
2018-05-06T02:07:37.968Z,83.30
2018-05-06T02:10:06.293Z,82.80
2018-05-06T02:12:35.337Z,82.90
2018-05-06T02:15:03.660Z,82.80
2018-05-06T02:17:31.942Z,82.50
2018-05-06T02:20:00.269Z,82.70
2018-05-06T02:22:29.313Z,82.00
2018-05-06T02:24:57.638Z,82.00
2018-05-06T02:27:25.960Z,81.70
2018-05-06T02:29:55.025Z,82.30
2018-05-06T02:32:23.349Z,82.30
2018-05-06T02:34:52.425Z,82.00
2018-05-06T02:37:20.756Z,81.90
2018-05-06T02:39:49.040Z,82.00
2018-05-06T02:42:18.137Z,82.30
2018-05-06T02:44:47.225Z,82.00
2018-05-06T02:47:15.813Z,81.90
2018-05-06T02:49:44.093Z,82.20
2018-05-06T02:52:12.365Z,82.60
2018-05-06T02:54:40.697Z,83.10
2018-05-06T02:57:08.982Z,83.00
2018-05-06T02:59:37.360Z,82.50
2018-05-06T03:02:05.688Z,82.90
2018-05-06T03:04:34.732Z,83.80
2018-05-06T03:07:03.012Z,83.80
2018-05-06T03:09:31.333Z,83.80
2018-05-06T03:11:59.728Z,84.20
2018-05-06T03:14:28.005Z,84.50
2018-05-06T03:16:56.333Z,85.40
2018-05-06T03:19:25.424Z,85.50
2018-05-06T03:21:53.748Z,85.40
2018-05-06T03:24:22.033Z,85.30
2018-05-06T03:26:51.084Z,86.10
2018-05-06T03:29:19.409Z,86.10
2018-05-06T03:31:47.737Z,85.30
2018-05-06T03:34:16.018Z,85.60
2018-05-06T03:36:44.344Z,85.40
2018-05-06T03:39:12.669Z,85.30
2018-05-06T03:41:40.997Z,85.90
2018-05-06T03:44:09.430Z,85.90
2018-05-06T03:46:37.757Z,86.20
2018-05-06T03:49:06.801Z,86.40
2018-05-06T03:51:35.125Z,86.40
2018-05-06T03:54:03.405Z,87.10
2018-05-06T03:59:43.664Z,87.50
2018-05-06T04:05:19.641Z,86.30
2018-05-06T04:07:47.972Z,86.80
2018-05-06T04:10:16.259Z,86.60
2018-05-06T04:12:44.584Z,86.10
2018-05-06T04:15:12.884Z,85.60
2018-05-06T04:17:41.200Z,84.80
2018-05-06T04:20:10.250Z,83.70
2018-05-06T04:22:38.568Z,83.70
2018-05-06T04:25:06.852Z,83.50
2018-05-06T04:27:35.184Z,83.60
2018-05-06T04:30:04.230Z,82.20
2018-05-06T04:32:32.556Z,82.20
2018-05-06T04:35:00.840Z,81.50
2018-05-06T04:37:29.180Z,81.40
2018-05-06T04:39:57.505Z,81.30
2018-05-06T04:42:25.829Z,80.20
2018-05-06T04:44:54.881Z,80.70
2018-05-06T04:47:23.213Z,80.70
2018-05-06T04:49:52.265Z,77.00
2018-05-06T04:52:20.691Z,77.30
2018-05-06T04:54:48.977Z,77.30
2018-05-06T04:57:17.332Z,77.90
2018-05-06T04:59:45.608Z,77.60
2018-05-06T05:02:13.893Z,78.60
2018-05-06T05:04:42.230Z,79.40
2018-05-06T05:07:10.512Z,79.50
2018-05-06T05:09:39.125Z,79.70
2018-05-06T05:12:08.096Z,79.40
2018-05-06T05:14:36.377Z,78.70
2018-05-06T05:17:04.716Z,78.10
2018-05-06T05:19:32.996Z,78.50
2018-05-06T05:22:01.329Z,79.80
2018-05-06T05:24:29.670Z,78.70
2018-05-06T05:26:58.004Z,78.80
2018-05-06T05:29:27.109Z,78.50
2018-05-06T05:31:56.208Z,78.90
2018-05-06T05:34:25.327Z,77.90
2018-05-06T05:36:53.605Z,77.70
2018-05-06T05:39:22.656Z,77.80
2018-05-06T05:41:50.989Z,77.10
2018-05-06T05:44:19.273Z,76.40
2018-05-06T05:46:47.560Z,76.60
2018-05-06T05:49:16.365Z,76.30
2018-05-06T05:51:44.652Z,74.40
2018-05-06T05:54:12.940Z,74.30
2018-05-06T05:56:41.277Z,75.20
2018-05-06T05:59:09.561Z,74.30
2018-05-06T06:01:37.848Z,75.10
2018-05-06T06:04:06.177Z,72.70
2018-05-06T06:06:34.511Z,71.40
2018-05-06T06:09:03.956Z,72.50
2018-05-06T06:11:32.304Z,72.50
2018-05-06T06:14:00.589Z,72.30
2018-05-06T06:16:28.930Z,71.90
2018-05-06T06:18:57.265Z,71.60
2018-05-06T06:21:25.642Z,72.10
2018-05-06T06:23:53.923Z,71.50
2018-05-06T06:26:22.333Z,70.90
2018-05-06T06:28:50.962Z,70.90
2018-05-06T06:31:20.057Z,69.00
2018-05-06T06:33:48.337Z,69.00
2018-05-06T06:36:16.664Z,69.00
2018-05-06T06:38:44.948Z,69.70
2018-05-06T06:41:13.282Z,67.70
2018-05-06T06:43:41.626Z,68.80
2018-05-06T06:46:10.697Z,65.30
2018-05-06T06:48:39.029Z,65.10
2018-05-06T06:51:07.377Z,65.80
2018-05-06T06:53:35.737Z,66.10
2018-05-06T06:56:04.029Z,65.10
2018-05-06T06:58:32.305Z,66.00
2018-05-06T07:01:01.033Z,65.70
2018-05-06T07:03:29.309Z,65.00
2018-05-06T07:05:57.711Z,64.10
2018-05-06T07:08:25.953Z,64.30
2018-05-06T07:10:54.276Z,64.00
2018-05-06T07:13:22.567Z,64.30
2018-05-06T07:15:50.897Z,63.30
2018-05-06T07:18:19.177Z,61.50
2018-05-06T07:20:47.566Z,61.20
2018-05-06T07:23:15.943Z,61.50
2018-05-06T07:25:44.213Z,61.70
2018-05-06T07:28:12.576Z,59.80
2018-05-06T07:30:41.705Z,59.80
2018-05-06T07:33:09.984Z,59.80
2018-05-06T07:35:38.329Z,59.40
2018-05-06T07:38:06.621Z,58.00
2018-05-06T07:40:34.964Z,57.70
2018-05-06T07:43:03.292Z,59.00
2018-05-06T07:45:32.341Z,57.20
2018-05-06T07:48:00.668Z,57.20
2018-05-06T07:50:28.978Z,55.90
2018-05-06T07:52:57.685Z,55.40
2018-05-06T07:55:25.972Z,55.00
2018-05-06T07:57:54.349Z,54.40
2018-05-06T08:00:22.681Z,55.60
2018-05-06T08:02:51.748Z,53.90
2018-05-06T08:05:20.082Z,53.90
2018-05-06T08:07:49.128Z,53.70
2018-05-06T08:10:17.409Z,53.60
2018-05-06T08:12:45.755Z,53.10
2018-05-06T08:15:14.805Z,54.60
2018-05-06T08:17:43.120Z,54.60
2018-05-06T08:20:11.449Z,52.30
2018-05-06T08:22:40.493Z,53.20
2018-05-06T08:25:08.881Z,53.20
2018-05-06T08:27:37.172Z,53.60
2018-05-06T08:30:05.592Z,53.30
2018-05-06T08:32:33.874Z,54.60
2018-05-06T08:35:02.264Z,53.90
2018-05-06T08:37:30.639Z,54.20
2018-05-06T08:39:59.666Z,52.00
2018-05-06T08:42:27.937Z,51.90
2018-05-06T08:44:57.004Z,52.00
2018-05-06T08:47:26.048Z,53.00
2018-05-06T08:49:54.376Z,53.00
2018-05-06T08:52:22.749Z,52.70
2018-05-06T08:54:51.080Z,52.30
2018-05-06T08:57:20.177Z,50.30
2018-05-06T08:59:49.225Z,50.70
2018-05-06T09:02:18.766Z,50.70
2018-05-06T09:04:47.465Z,50.40
2018-05-06T09:07:16.782Z,50.20
2018-05-06T09:09:45.081Z,50.10
2018-05-06T09:12:13.468Z,51.10
2018-05-06T09:14:41.953Z,50.70
2018-05-06T09:17:10.550Z,51.50
2018-05-06T09:19:39.035Z,51.50
2018-05-06T09:22:07.296Z,51.50
2018-05-06T09:24:36.061Z,50.20
2018-05-06T09:27:04.531Z,51.30
2018-05-06T09:29:32.837Z,50.00
2018-05-06T09:32:01.172Z,50.40
2018-05-06T09:34:29.608Z,50.40
2018-05-06T09:36:57.890Z,49.60
2018-05-06T09:39:26.169Z,51.00
2018-05-06T09:41:54.769Z,50.60
2018-05-06T09:44:24.185Z,49.40
2018-05-06T09:46:52.985Z,49.30
2018-05-06T09:49:22.106Z,49.60
2018-05-06T09:51:50.389Z,49.60
2018-05-06T09:54:19.134Z,50.40
2018-05-06T09:56:48.497Z,48.90
2018-05-06T09:59:18.221Z,50.40
2018-05-06T10:01:46.576Z,51.00
2018-05-06T10:04:14.849Z,49.50
2018-05-06T10:06:43.945Z,49.30
2018-05-06T10:09:13.425Z,50.50
2018-05-06T10:11:41.896Z,50.50
2018-05-06T10:14:10.465Z,50.60
2018-05-06T10:16:39.008Z,48.60
2018-05-06T10:19:07.361Z,50.80
2018-05-06T10:21:35.688Z,50.60
2018-05-06T10:24:03.976Z,50.60
2018-05-06T10:26:32.252Z,49.30
2018-05-06T10:29:00.586Z,48.80
2018-05-06T10:31:28.872Z,48.50
2018-05-06T10:33:57.214Z,48.40
2018-05-06T10:36:25.632Z,51.30
2018-05-06T10:38:54.329Z,49.40
2018-05-06T10:41:22.609Z,48.80
2018-05-06T10:43:50.889Z,50.10
2018-05-06T10:46:19.212Z,48.20
2018-05-06T10:48:47.497Z,49.20
2018-05-06T10:51:16.656Z,48.80
2018-05-06T10:53:44.932Z,48.10
2018-05-06T10:56:13.216Z,50.50
2018-05-06T10:58:42.338Z,48.80
2018-05-06T11:01:10.621Z,48.80
2018-05-06T11:03:38.969Z,49.20
2018-05-06T11:06:07.668Z,50.00
2018-05-06T11:08:37.467Z,47.70
2018-05-06T11:11:05.749Z,47.70
2018-05-06T11:13:34.073Z,49.00
2018-05-06T11:16:02.427Z,50.20
2018-05-06T11:18:30.700Z,47.90
2018-05-06T11:20:59.048Z,49.50
2018-05-06T11:23:27.424Z,48.40
2018-05-06T11:25:55.824Z,48.80
2018-05-06T11:28:24.393Z,48.30
2018-05-06T11:30:52.680Z,48.10
2018-05-06T11:33:21.057Z,49.30
2018-05-06T11:35:49.375Z,49.10
2018-05-06T11:38:17.648Z,48.00
2018-05-06T11:40:46.061Z,47.60
2018-05-06T11:43:14.408Z,48.30
2018-05-06T11:45:42.760Z,47.50
2018-05-06T11:48:11.089Z,47.60
2018-05-06T11:50:40.156Z,49.00
2018-05-06T11:53:08.481Z,48.30
2018-05-06T11:55:36.814Z,49.90
2018-05-06T11:58:05.104Z,48.60
2018-05-06T12:00:33.511Z,46.90
2018-05-06T12:03:01.841Z,47.70
2018-05-06T12:05:30.168Z,49.10
2018-05-06T12:07:58.457Z,49.30
2018-05-06T12:10:26.961Z,48.80
2018-05-06T12:12:55.241Z,48.20
2018-05-06T12:15:23.520Z,48.80
2018-05-06T12:17:51.849Z,48.50
2018-05-06T12:20:20.136Z,47.00
2018-05-06T12:22:48.460Z,48.20
2018-05-06T12:25:16.742Z,49.20
2018-05-06T12:27:45.836Z,47.90
2018-05-06T12:30:14.913Z,46.90
2018-05-06T12:32:43.194Z,46.90
2018-05-06T12:35:11.526Z,48.60
2018-05-06T12:37:40.602Z,49.00
2018-05-06T12:40:08.881Z,49.00
2018-05-06T12:42:37.216Z,46.50
2018-05-06T12:45:06.317Z,48.10
2018-05-06T12:47:35.365Z,46.70
2018-05-06T12:50:03.696Z,46.70
2018-05-06T12:52:32.076Z,45.90
2018-05-06T12:55:00.484Z,48.20
2018-05-06T12:57:28.769Z,48.00
2018-05-06T12:59:57.453Z,47.10
2018-05-06T13:02:26.574Z,49.30
2018-05-06T13:04:54.959Z,49.30
2018-05-06T13:07:23.300Z,47.30
2018-05-06T13:09:51.628Z,48.30
2018-05-06T13:12:19.910Z,47.50
2018-05-06T13:14:48.253Z,47.90
2018-05-06T13:17:17.386Z,47.00
2018-05-06T13:19:45.620Z,47.00
2018-05-06T13:22:14.013Z,47.80
2018-05-06T13:24:42.576Z,48.80
2018-05-06T13:27:10.932Z,47.30
2018-05-06T13:29:40.104Z,47.40
2018-05-06T13:32:08.437Z,47.30
2018-05-06T13:34:37.534Z,46.40
2018-05-06T13:37:06.629Z,47.00
2018-05-06T13:39:35.009Z,47.00
2018-05-06T13:42:03.393Z,46.20
2018-05-06T13:44:31.970Z,46.80
2018-05-06T13:47:00.345Z,46.20
2018-05-06T13:49:28.637Z,46.40
2018-05-06T13:51:56.960Z,46.00
2018-05-06T13:54:25.245Z,47.60
2018-05-06T13:56:53.576Z,47.60
2018-05-06T13:59:22.629Z,44.60
2018-05-06T14:01:50.972Z,44.50
2018-05-06T14:04:20.064Z,46.20
2018-05-06T14:06:48.353Z,46.20
2018-05-06T14:09:16.684Z,46.90
2018-05-06T14:11:44.965Z,46.10
2018-05-06T14:14:13.299Z,47.30
2018-05-06T14:16:41.603Z,46.60
2018-05-06T14:19:09.937Z,47.30
2018-05-06T14:21:38.301Z,47.00
2018-05-06T14:24:06.521Z,45.10
2018-05-06T14:26:34.867Z,46.10
2018-05-06T14:29:03.200Z,46.30
2018-05-06T14:31:31.482Z,46.60
2018-05-06T14:33:59.813Z,45.60
2018-05-06T14:36:28.101Z,44.80
2018-05-06T14:38:56.441Z,45.30
2018-05-06T14:41:25.484Z,45.20
2018-05-06T14:43:53.764Z,45.20
2018-05-06T14:46:34.164Z,46.30
2018-05-06T14:49:02.515Z,46.70
2018-05-06T14:51:30.848Z,45.90
2018-05-06T14:53:59.241Z,47.20
2018-05-06T14:56:27.525Z,46.30
2018-05-06T14:58:55.901Z,46.30
2018-05-06T15:01:24.208Z,45.40
2018-05-06T15:03:52.493Z,45.20
2018-05-06T15:06:20.830Z,45.00
2018-05-06T15:08:49.993Z,43.70
2018-05-06T15:11:18.392Z,43.60
2018-05-06T15:13:46.787Z,44.70
2018-05-06T15:16:15.172Z,40.20
2018-05-06T15:18:43.453Z,39.00
2018-05-06T15:21:11.806Z,36.90
2018-05-06T15:23:40.349Z,38.00
2018-05-06T15:26:08.645Z,37.00
2018-05-06T15:28:36.928Z,37.00
2018-05-06T15:31:05.269Z,37.70
2018-05-06T15:33:33.549Z,37.20
2018-05-06T15:36:01.975Z,33.90
2018-05-06T15:38:30.337Z,34.60
2018-05-06T15:40:58.698Z,32.30
2018-05-06T15:43:26.973Z,31.10
2018-05-06T15:45:55.252Z,33.80
2018-05-06T15:48:23.581Z,33.70
2018-05-06T15:50:52.677Z,35.30
2018-05-06T15:53:20.970Z,35.30
2018-05-06T15:55:49.333Z,36.10
2018-05-06T15:58:17.676Z,33.90
2018-05-06T16:00:46.009Z,31.70
2018-05-06T16:03:26.294Z,31.50
2018-05-06T16:05:54.573Z,33.10
2018-05-06T16:08:23.168Z,30.80
2018-05-06T16:10:51.449Z,33.00
2018-05-06T16:13:19.728Z,33.50
2018-05-06T16:15:48.057Z,33.90
2018-05-06T16:18:16.429Z,32.00
2018-05-06T16:20:45.537Z,33.30
2018-05-06T16:23:13.929Z,35.00
2018-05-06T16:25:42.264Z,34.30
2018-05-06T16:28:11.356Z,29.70
2018-05-06T16:30:40.405Z,30.60
2018-05-06T16:33:08.819Z,30.60
2018-05-06T16:35:37.800Z,33.40
2018-05-06T16:38:06.222Z,33.40
2018-05-06T16:40:34.510Z,35.00
2018-05-06T16:43:02.833Z,36.00
2018-05-06T16:45:31.881Z,41.60
2018-05-06T16:48:00.468Z,41.60
2018-05-06T16:50:28.744Z,42.40
2018-05-06T16:52:57.032Z,43.30
2018-05-06T16:55:25.376Z,44.20
2018-05-06T16:57:53.669Z,45.80
2018-05-06T17:00:23.452Z,46.70
2018-05-06T17:02:51.788Z,46.70
2018-05-06T17:05:20.169Z,47.20
2018-05-06T17:07:48.509Z,47.00
2018-05-06T17:10:16.797Z,47.30
2018-05-06T17:12:45.076Z,48.70
2018-05-06T17:15:14.456Z,49.30
2018-05-06T17:17:44.272Z,50.30
2018-05-06T17:20:12.060Z,50.30
2018-05-06T17:22:40.439Z,50.90
2018-05-06T17:25:08.760Z,50.90
2018-05-06T17:27:37.065Z,50.50
2018-05-06T17:30:05.417Z,50.70
2018-05-06T17:32:34.521Z,49.60
2018-05-06T17:35:02.801Z,49.60
2018-05-06T17:37:31.140Z,51.00
2018-05-06T17:39:59.469Z,50.70
2018-05-06T17:42:27.800Z,51.00
2018-05-06T17:44:56.902Z,51.90
2018-05-06T17:47:25.277Z,51.60
2018-05-06T17:49:53.664Z,51.90
2018-05-06T17:52:21.957Z,51.60
2018-05-06T17:54:50.288Z,52.30
2018-05-06T17:57:19.384Z,52.90
2018-05-06T17:59:48.464Z,53.00
2018-05-06T18:02:16.796Z,53.00
2018-05-06T18:04:45.835Z,54.10
2018-05-06T18:07:14.248Z,54.10
2018-05-06T18:09:42.638Z,55.60
2018-05-06T18:12:10.976Z,54.90
2018-05-06T18:14:39.257Z,54.60
2018-05-06T18:17:08.310Z,54.90
2018-05-06T18:19:36.652Z,54.90
2018-05-06T18:22:05.737Z,56.80
2018-05-06T18:24:34.358Z,56.80
2018-05-06T18:27:02.628Z,56.30
2018-05-06T18:29:30.905Z,56.10
2018-05-06T18:32:00.740Z,56.40
2018-05-06T18:34:29.083Z,56.40
2018-05-06T18:36:57.364Z,57.60
2018-05-06T18:39:25.792Z,58.10
2018-05-06T18:41:54.121Z,57.90
2018-05-06T18:44:23.185Z,59.80
2018-05-06T18:46:51.555Z,59.80
2018-05-06T18:49:19.872Z,60.50
2018-05-06T18:51:48.269Z,61.10
2018-05-06T18:54:16.548Z,60.70
2018-05-06T18:56:44.876Z,62.10
2018-05-06T18:59:13.924Z,62.50
2018-05-06T19:01:42.257Z,62.50
2018-05-06T19:04:10.537Z,62.50
2018-05-06T19:06:40.325Z,63.20
2018-05-06T19:09:08.736Z,63.10
2018-05-06T19:11:37.137Z,63.30
2018-05-06T19:14:05.476Z,64.60
2018-05-06T19:16:33.753Z,64.80
2018-05-06T19:19:02.853Z,66.80
2018-05-06T19:21:31.896Z,66.50
2018-05-06T19:24:00.322Z,66.40
2018-05-06T19:26:28.617Z,67.50
2018-05-06T19:28:56.947Z,67.60
2018-05-06T19:31:25.229Z,68.20
2018-05-06T19:33:54.396Z,68.70
2018-05-06T19:36:22.732Z,68.70
2018-05-06T19:38:51.780Z,70.30
2018-05-06T19:41:20.184Z,70.30
2018-05-06T19:43:48.469Z,71.00
2018-05-06T19:46:16.751Z,71.70
2018-05-06T19:48:45.081Z,72.10
2018-05-06T19:51:13.453Z,72.30
2018-05-06T19:53:41.741Z,73.20
2018-05-06T19:56:10.069Z,73.00
2018-05-06T19:58:38.404Z,72.50
2018-05-06T20:01:06.808Z,71.80
2018-05-06T20:03:35.092Z,71.70
2018-05-06T20:06:03.428Z,71.90
2018-05-06T20:08:32.472Z,73.20
2018-05-06T20:11:01.093Z,73.20
2018-05-06T20:13:29.410Z,74.20
2018-05-06T20:15:57.677Z,74.60
2018-05-06T20:18:26.065Z,75.10
2018-05-06T20:20:54.348Z,74.70
2018-05-06T20:23:22.637Z,74.60
2018-05-06T20:25:50.965Z,74.90
2018-05-06T20:28:20.013Z,76.00
2018-05-06T20:30:48.636Z,75.90
2018-05-06T20:33:17.022Z,76.30
2018-05-06T20:35:45.312Z,77.00
2018-05-06T20:38:13.644Z,77.60
2018-05-06T20:40:41.932Z,78.10
2018-05-06T20:43:10.222Z,78.90
2018-05-06T20:45:39.388Z,79.70
2018-05-06T20:48:07.725Z,79.70
2018-05-06T20:50:36.764Z,79.90
2018-05-06T20:53:05.093Z,79.90
2018-05-06T20:55:33.376Z,80.50
2018-05-06T20:58:02.475Z,81.10
2018-05-06T21:00:30.809Z,81.10
2018-05-06T21:02:59.092Z,81.30
2018-05-06T21:05:27.441Z,81.60
2018-05-06T21:07:55.789Z,82.00
2018-05-06T21:10:24.143Z,81.90
2018-05-06T21:12:52.417Z,83.30
2018-05-06T21:15:20.752Z,83.10
2018-05-06T21:17:49.041Z,83.40
2018-05-06T21:20:17.376Z,84.00
2018-05-06T21:22:45.667Z,83.80
2018-05-06T21:25:13.950Z,86.00
2018-05-06T21:27:42.289Z,87.80
2018-05-06T21:30:11.340Z,88.80
2018-05-06T21:32:39.668Z,89.40
2018-05-06T21:35:08.752Z,86.40
2018-05-06T21:37:37.147Z,86.40
2018-05-06T21:40:05.429Z,87.10
2018-05-06T21:42:33.824Z,85.90
2018-05-06T21:45:02.293Z,86.70
2018-05-06T21:47:30.608Z,85.80
2018-05-06T21:49:58.997Z,86.10
2018-05-06T21:52:27.288Z,85.80
2018-05-06T21:54:55.619Z,85.90
2018-05-06T21:57:24.730Z,84.90
2018-05-06T21:59:53.012Z,84.90
2018-05-06T22:02:22.064Z,86.60
2018-05-06T22:04:50.472Z,86.60
2018-05-06T22:07:18.809Z,87.90
2018-05-06T22:09:47.141Z,88.20
2018-05-06T22:12:15.429Z,88.80
2018-05-06T22:14:43.761Z,89.50
2018-05-06T22:17:12.809Z,89.60
2018-05-06T22:19:41.145Z,89.60
2018-05-06T22:22:10.941Z,88.80
2018-05-06T22:24:39.271Z,88.80
2018-05-06T22:27:08.320Z,87.30
2018-05-06T22:29:36.660Z,87.10
2018-05-06T22:32:06.496Z,88.00
2018-05-06T22:34:35.593Z,88.10
2018-05-06T22:37:03.877Z,88.10
2018-05-06T22:39:32.361Z,88.70
2018-05-06T22:42:00.641Z,88.80
2018-05-06T22:44:28.937Z,88.60
2018-05-06T22:46:57.276Z,87.70
2018-05-06T22:49:25.565Z,87.40
2018-05-06T22:51:53.849Z,87.20
2018-05-06T22:54:22.196Z,87.40
2018-05-06T22:56:50.483Z,88.10
2018-05-06T22:59:18.765Z,89.00
2018-05-06T23:01:47.145Z,89.40
2018-05-06T23:04:15.465Z,89.20
2018-05-06T23:06:43.744Z,88.60
2018-05-06T23:09:12.085Z,88.00
2018-05-06T23:11:40.688Z,88.00
2018-05-06T23:14:08.972Z,87.90
2018-05-06T23:16:37.262Z,88.60
2018-05-06T23:19:05.801Z,88.70
2018-05-06T23:21:34.096Z,88.70
2018-05-06T23:24:02.381Z,88.60
2018-05-06T23:26:31.134Z,89.20
2018-05-06T23:28:59.372Z,89.50
2018-05-06T23:31:27.662Z,88.90
2018-05-06T23:33:57.504Z,90.00
2018-05-06T23:36:26.560Z,90.00
2018-05-06T23:38:54.892Z,89.90
2018-05-06T23:41:23.993Z,90.30
2018-05-06T23:43:52.359Z,90.00
2018-05-06T23:46:20.672Z,89.90
2018-05-06T23:48:48.964Z,90.10
2018-05-06T23:51:18.800Z,90.60
2018-05-06T23:53:47.888Z,90.80
2018-05-06T23:56:16.244Z,90.80
2018-05-06T23:58:44.560Z,90.50
